createdAt,value
2022-11-05T00:01:06.578Z,20.08
2022-11-05T00:05:30.481Z,17.87
2022-11-05T00:09:33.621Z,17.50
2022-11-05T00:13:53.771Z,15.73
2022-11-05T00:17:55.414Z,17.80
2022-11-05T00:22:15.666Z,16.85
2022-11-05T00:26:17.289Z,18.75
2022-11-05T00:30:24.793Z,20.50
2022-11-05T00:34:26.482Z,14.60
2022-11-05T00:38:30.405Z,14.52
2022-11-05T00:42:50.754Z,14.10
2022-11-05T00:47:15.321Z,14.27
2022-11-05T00:51:17.041Z,14.40
2022-11-05T00:55:18.664Z,17.77
2022-11-05T00:59:20.262Z,18.00
2022-11-05T01:03:25.791Z,14.85
2022-11-05T01:07:27.383Z,13.48
2022-11-05T01:11:36.811Z,21.65
2022-11-05T01:15:38.726Z,15.48
2022-11-05T01:19:40.426Z,15.25
2022-11-05T01:23:42.152Z,17.80
2022-11-05T01:27:43.802Z,12.85
2022-11-05T01:31:45.451Z,13.50
2022-11-05T01:35:47.097Z,14.52
2022-11-05T01:39:48.685Z,16.67
2022-11-05T01:43:55.110Z,14.43
2022-11-05T01:48:21.205Z,13.88
2022-11-05T01:52:24.068Z,16.00
2022-11-05T01:56:51.520Z,13.38
2022-11-05T02:00:55.090Z,16.00
2022-11-05T02:05:00.893Z,15.73
2022-11-05T02:09:02.480Z,14.40
2022-11-05T02:13:04.208Z,17.27
2022-11-05T02:17:16.135Z,15.43
2022-11-05T02:21:55.480Z,15.13
2022-11-05T02:26:35.181Z,16.00
2022-11-05T02:30:56.676Z,17.50
2022-11-05T02:35:18.249Z,16.10
2022-11-05T02:39:27.867Z,12.40
2022-11-05T02:43:45.717Z,14.90
2022-11-05T02:48:13.238Z,16.02
2022-11-05T02:52:24.005Z,12.70
2022-11-05T02:56:35.326Z,16.73
2022-11-05T03:00:37.202Z,14.32
2022-11-05T03:04:39.080Z,13.65
2022-11-05T03:08:52.697Z,12.30
2022-11-05T03:13:22.252Z,19.33
2022-11-05T03:17:50.186Z,17.73
2022-11-05T03:26:20.761Z,17.40
2022-11-05T03:30:23.660Z,14.70
2022-11-05T03:34:32.211Z,15.63
2022-11-05T03:38:41.693Z,14.48
2022-11-05T03:42:49.174Z,13.48
2022-11-05T03:46:52.497Z,10.95
2022-11-05T03:51:05.341Z,14.50
2022-11-05T03:55:07.321Z,13.75
2022-11-05T03:59:09.973Z,12.85
2022-11-05T04:03:11.837Z,19.50
2022-11-05T04:07:34.095Z,14.00
2022-11-05T04:11:54.617Z,15.15
2022-11-05T04:16:15.416Z,15.20
2022-11-05T04:20:36.107Z,14.10
2022-11-05T04:24:37.726Z,13.60
2022-11-05T04:28:58.006Z,18.02
2022-11-05T04:33:01.716Z,15.00
2022-11-05T04:37:03.335Z,11.60
2022-11-05T04:41:15.624Z,12.73
2022-11-05T04:45:17.346Z,12.50
2022-11-05T04:49:19.010Z,14.07
2022-11-05T04:53:20.641Z,14.55
2022-11-05T04:57:22.244Z,12.57
2022-11-05T05:01:25.299Z,14.07
2022-11-05T05:05:27.162Z,18.10
2022-11-05T05:09:28.781Z,15.20
2022-11-05T05:13:30.487Z,17.00
2022-11-05T05:17:32.177Z,19.00
2022-11-05T05:21:40.266Z,15.88
2022-11-05T05:25:41.931Z,15.70
2022-11-05T05:29:43.607Z,15.50
2022-11-05T05:33:45.236Z,11.45
2022-11-05T05:37:46.986Z,11.95
2022-11-05T05:41:48.643Z,15.70
2022-11-05T05:45:50.861Z,11.88
2022-11-05T05:49:52.549Z,16.30
2022-11-05T05:53:54.745Z,15.02
2022-11-05T05:57:56.384Z,13.40
2022-11-05T06:01:58.216Z,11.38
2022-11-05T06:06:12.937Z,12.23
2022-11-05T06:10:14.651Z,12.10
2022-11-05T06:14:16.382Z,16.42
2022-11-05T06:18:18.165Z,12.25
2022-11-05T06:22:19.757Z,17.27
2022-11-05T06:26:21.438Z,11.70
2022-11-05T06:30:23.982Z,12.60
2022-11-05T06:34:25.605Z,13.93
2022-11-05T06:38:29.121Z,13.55
2022-11-05T06:42:30.806Z,13.82
2022-11-05T06:46:32.449Z,11.73
2022-11-05T06:50:34.076Z,13.50
2022-11-05T06:54:35.744Z,14.93
2022-11-05T06:58:37.501Z,16.08
2022-11-05T07:02:39.117Z,14.25
2022-11-05T07:06:40.781Z,16.52
2022-11-05T07:10:42.449Z,14.23
2022-11-05T07:14:44.068Z,12.13
2022-11-05T07:18:45.673Z,18.83
2022-11-05T07:22:47.333Z,13.65
2022-11-05T07:26:49.495Z,13.52
2022-11-05T07:30:51.321Z,18.80
2022-11-05T07:34:52.968Z,15.80
2022-11-05T07:38:59.955Z,15.82
2022-11-05T07:43:02.436Z,13.60
2022-11-05T07:47:04.107Z,17.60
2022-11-05T07:51:05.777Z,17.30
2022-11-05T07:55:07.992Z,18.60
2022-11-05T07:59:09.609Z,15.60
2022-11-05T08:03:17.346Z,24.70
2022-11-05T08:07:19.338Z,26.25
2022-11-05T08:11:20.939Z,28.33
2022-11-05T08:15:23.650Z,26.30
2022-11-05T08:19:25.300Z,29.02
2022-11-05T08:23:28.028Z,37.08
2022-11-05T08:27:29.660Z,29.48
2022-11-05T08:31:31.845Z,34.28
2022-11-05T08:35:35.013Z,35.13
2022-11-05T08:39:36.654Z,27.87
2022-11-05T08:43:38.281Z,25.25
2022-11-05T08:47:39.946Z,24.25
2022-11-05T08:51:43.336Z,27.25
2022-11-05T08:55:47.435Z,26.20
2022-11-05T08:59:49.066Z,21.83
2022-11-05T09:03:51.921Z,20.92
2022-11-05T09:07:59.434Z,21.42
2022-11-05T09:12:12.382Z,24.77
2022-11-05T09:16:20.737Z,25.15
2022-11-05T09:20:22.821Z,22.35
2022-11-05T09:24:24.484Z,20.92
2022-11-05T09:28:26.286Z,20.77
2022-11-05T09:32:27.949Z,23.20
2022-11-05T09:36:29.578Z,17.00
2022-11-05T09:40:35.797Z,17.17
2022-11-05T09:44:41.377Z,17.05
2022-11-05T09:48:47.876Z,22.67
2022-11-05T09:52:49.860Z,17.10
2022-11-05T09:56:53.650Z,17.37
2022-11-05T10:00:56.260Z,15.18
2022-11-05T10:05:09.402Z,16.73
2022-11-05T10:09:26.465Z,18.25
2022-11-05T10:13:42.251Z,17.02
2022-11-05T10:17:53.691Z,17.98
2022-11-05T10:22:16.669Z,17.37
2022-11-05T10:26:23.787Z,18.23
2022-11-05T10:30:25.591Z,13.60
2022-11-05T10:34:33.554Z,16.50
2022-11-05T10:38:35.365Z,13.30
2022-11-05T10:43:08.372Z,16.75
2022-11-05T10:47:31.251Z,12.93
2022-11-05T10:51:34.077Z,11.50
2022-11-05T10:55:41.028Z,14.82
2022-11-05T10:59:42.640Z,11.80
2022-11-05T11:03:51.010Z,11.98
2022-11-05T11:07:57.524Z,13.13
2022-11-05T11:12:03.926Z,13.07
2022-11-05T11:16:23.491Z,10.43
2022-11-05T11:20:32.406Z,11.30
2022-11-05T11:24:45.676Z,11.43
2022-11-05T11:29:14.037Z,10.77
2022-11-05T11:33:21.663Z,13.10
2022-11-05T11:37:30.125Z,10.35
2022-11-05T11:41:36.409Z,11.00
2022-11-05T11:45:46.678Z,8.45
2022-11-05T11:49:56.957Z,8.68
2022-11-05T11:54:00.788Z,7.85
2022-11-05T11:58:07.862Z,9.43
2022-11-05T12:02:23.846Z,8.20
2022-11-05T12:07:03.648Z,9.93
2022-11-05T12:11:27.899Z,10.70
2022-11-05T12:15:41.214Z,8.50
2022-11-05T12:20:09.661Z,6.72
2022-11-05T12:24:45.033Z,6.37
2022-11-05T12:29:18.918Z,8.32
2022-11-05T12:33:31.815Z,9.50
2022-11-05T12:37:55.339Z,6.40
2022-11-05T12:42:22.336Z,7.87
2022-11-05T12:46:45.196Z,10.95
2022-11-05T12:51:02.164Z,6.30
2022-11-05T12:55:16.622Z,8.10
2022-11-05T12:59:33.588Z,7.00
2022-11-05T13:03:52.135Z,8.27
2022-11-05T13:08:07.516Z,8.98
2022-11-05T13:12:14.806Z,7.47
2022-11-05T13:20:40.068Z,8.07
2022-11-05T13:24:55.296Z,9.63
2022-11-05T13:29:15.685Z,5.40
2022-11-05T13:33:17.272Z,5.05
2022-11-05T13:37:44.425Z,7.25
2022-11-05T13:42:13.295Z,12.20
2022-11-05T13:46:49.805Z,6.45
2022-11-05T13:51:07.320Z,5.78
2022-11-05T13:55:26.885Z,9.77
2022-11-05T13:59:57.120Z,7.22
2022-11-05T14:03:58.815Z,7.45
2022-11-05T14:08:15.494Z,6.07
2022-11-05T14:12:28.135Z,5.65
2022-11-05T14:16:49.393Z,4.55
2022-11-05T14:20:59.913Z,4.95
2022-11-05T14:25:22.853Z,6.60
2022-11-05T14:29:25.044Z,6.80
2022-11-05T14:33:26.612Z,8.55
2022-11-05T14:37:32.101Z,9.85
2022-11-05T14:42:02.387Z,7.62
2022-11-05T14:46:08.948Z,5.65
2022-11-05T14:50:19.509Z,6.27
2022-11-05T14:54:39.809Z,6.45
2022-11-05T14:58:43.578Z,4.50
2022-11-05T15:02:57.601Z,5.85
2022-11-05T15:07:01.961Z,6.10
2022-11-05T15:11:15.904Z,7.90
2022-11-05T15:15:27.510Z,5.60
2022-11-05T15:19:30.628Z,5.28
2022-11-05T15:23:40.204Z,6.18
2022-11-05T15:28:01.521Z,6.00
2022-11-05T15:32:03.272Z,4.62
2022-11-05T15:36:29.239Z,5.15
2022-11-05T15:40:32.938Z,4.62
2022-11-05T15:44:40.445Z,3.45
2022-11-05T15:48:50.781Z,3.87
2022-11-05T15:52:54.566Z,5.45
2022-11-05T15:56:58.335Z,2.83
2022-11-05T16:00:59.977Z,4.95
2022-11-05T16:05:09.225Z,7.12
2022-11-05T16:09:31.897Z,3.65
2022-11-05T16:13:39.147Z,6.30
2022-11-05T16:21:55.030Z,10.32
2022-11-05T16:25:56.641Z,6.60
2022-11-05T16:29:58.399Z,5.40
2022-11-05T16:34:00.118Z,6.07
2022-11-05T16:38:02.806Z,4.70
2022-11-05T16:42:22.672Z,5.85
2022-11-05T16:46:26.597Z,4.55
2022-11-05T16:50:32.125Z,8.00
2022-11-05T16:54:33.844Z,4.57
2022-11-05T16:58:35.533Z,5.57
2022-11-05T17:02:37.402Z,5.37
2022-11-05T17:06:39.242Z,3.80
2022-11-05T17:10:40.864Z,3.55
2022-11-05T17:14:42.501Z,5.15
2022-11-05T17:18:44.563Z,6.32
2022-11-05T17:22:46.196Z,7.78
2022-11-05T17:26:47.881Z,5.10
2022-11-05T17:30:52.888Z,4.65
2022-11-05T17:34:54.913Z,5.22
2022-11-05T17:38:56.536Z,3.55
2022-11-05T17:42:58.532Z,5.55
2022-11-05T17:47:00.185Z,4.57
2022-11-05T17:51:02.328Z,4.28
2022-11-05T17:55:06.171Z,6.45
2022-11-05T17:59:07.879Z,5.15
2022-11-05T18:03:10.827Z,4.25
2022-11-05T18:07:14.826Z,6.57
2022-11-05T18:11:16.566Z,4.95
2022-11-05T18:15:18.369Z,3.60
2022-11-05T18:19:19.955Z,5.97
2022-11-05T18:23:21.606Z,4.75
2022-11-05T18:27:27.355Z,4.97
2022-11-05T18:31:29.062Z,4.87
2022-11-05T18:35:30.777Z,6.80
2022-11-05T18:39:32.433Z,6.65
2022-11-05T18:43:34.128Z,4.32
2022-11-05T18:47:35.847Z,6.18
2022-11-05T18:51:37.633Z,6.15
2022-11-05T18:55:40.715Z,5.05
2022-11-05T18:59:46.476Z,6.12
2022-11-05T19:03:51.082Z,8.02
2022-11-05T19:07:52.902Z,5.72
2022-11-05T19:11:56.932Z,5.45
2022-11-05T19:15:58.521Z,8.65
2022-11-05T19:20:00.661Z,7.40
2022-11-05T19:24:03.129Z,7.37
2022-11-05T19:28:05.063Z,9.57
2022-11-05T19:32:06.837Z,6.90
2022-11-05T19:36:09.451Z,7.28
2022-11-05T19:40:11.900Z,9.43
2022-11-05T19:44:13.496Z,6.75
2022-11-05T19:48:19.355Z,7.97
2022-11-05T19:52:21.811Z,9.35
2022-11-05T19:56:26.135Z,13.05
2022-11-05T20:00:27.760Z,6.78
2022-11-05T20:04:29.522Z,13.38
2022-11-05T20:08:31.176Z,6.00
2022-11-05T20:12:33.106Z,9.10
2022-11-05T20:16:40.223Z,8.45
2022-11-05T20:20:45.300Z,7.68
2022-11-05T20:24:46.902Z,6.25
2022-11-05T20:28:48.558Z,7.53
2022-11-05T20:32:57.599Z,6.78
2022-11-05T20:36:59.600Z,12.55
2022-11-05T20:41:09.765Z,6.82
2022-11-05T20:45:11.772Z,10.38
2022-11-05T20:49:13.441Z,9.30
2022-11-05T20:53:15.078Z,6.90
2022-11-05T20:57:16.721Z,6.70
2022-11-05T21:01:19.077Z,8.43
2022-11-05T21:05:20.865Z,6.25
2022-11-05T21:09:22.554Z,7.05
2022-11-05T21:13:24.949Z,8.05
2022-11-05T21:17:26.563Z,10.57
2022-11-05T21:21:28.352Z,9.60
2022-11-05T21:25:29.978Z,7.53
2022-11-05T21:29:31.589Z,7.87
2022-11-05T21:33:33.618Z,9.02
2022-11-05T21:37:35.223Z,12.02
2022-11-05T21:41:36.965Z,12.88
2022-11-05T21:45:40.315Z,13.57
2022-11-05T21:49:41.947Z,8.90
2022-11-05T21:54:02.154Z,10.32
2022-11-05T21:58:33.773Z,10.30
2022-11-05T22:02:35.894Z,10.82
2022-11-05T22:06:37.607Z,9.90
2022-11-05T22:10:39.344Z,12.73
2022-11-05T22:14:41.424Z,11.35
2022-11-05T22:18:43.036Z,10.07
2022-11-05T22:22:45.439Z,9.77
2022-11-05T22:26:47.343Z,11.20
2022-11-05T22:30:48.946Z,11.18
2022-11-05T22:34:50.618Z,10.02
2022-11-05T22:38:52.314Z,11.60
2022-11-05T22:42:53.930Z,9.68
2022-11-05T22:46:56.014Z,11.10
2022-11-05T22:51:03.853Z,13.32
2022-11-05T22:55:06.116Z,13.25
2022-11-05T22:59:12.315Z,14.75
2022-11-05T23:03:14.150Z,16.00
2022-11-05T23:07:34.597Z,14.48
2022-11-05T23:11:39.246Z,13.48
2022-11-05T23:15:59.499Z,11.00
2022-11-05T23:20:30.599Z,11.98
2022-11-05T23:24:32.213Z,11.90
2022-11-05T23:28:33.809Z,10.93
2022-11-05T23:32:35.985Z,14.15
2022-11-05T23:36:56.162Z,13.25
2022-11-05T23:41:20.750Z,11.80
2022-11-05T23:45:41.139Z,11.30
2022-11-05T23:49:42.771Z,14.60
2022-11-05T23:53:44.379Z,16.00
2022-11-05T23:57:46.137Z,11.07
